createdAt,value
2018-04-23T00:00:50.038Z,42.40
2018-04-23T00:01:54.859Z,42.40
2018-04-23T00:02:59.802Z,42.30
2018-04-23T00:04:04.826Z,42.40
2018-04-23T00:05:09.668Z,42.30
2018-04-23T00:06:14.464Z,42.40
2018-04-23T00:07:19.281Z,42.40
2018-04-23T00:08:24.255Z,42.50
2018-04-23T00:09:29.218Z,42.60
2018-04-23T00:10:34.024Z,42.60
2018-04-23T00:11:38.978Z,42.50
2018-04-23T00:12:43.639Z,42.50
2018-04-23T00:13:48.577Z,42.60
2018-04-23T00:14:53.147Z,42.60
2018-04-23T00:15:57.774Z,42.60
2018-04-23T00:17:02.703Z,42.70
2018-04-23T00:18:07.503Z,42.70
2018-04-23T00:19:12.118Z,42.70
2018-04-23T00:20:16.887Z,42.80
2018-04-23T00:21:21.670Z,42.70
2018-04-23T00:22:26.327Z,42.70
2018-04-23T00:23:31.051Z,42.70
2018-04-23T00:24:35.845Z,42.80
2018-04-23T00:25:40.749Z,42.80
2018-04-23T00:26:45.565Z,42.70
2018-04-23T00:27:50.464Z,42.90
2018-04-23T00:28:55.115Z,42.90
2018-04-23T00:29:59.921Z,43.40
2018-04-23T00:31:04.679Z,42.90
2018-04-23T00:32:09.463Z,42.90
2018-04-23T00:33:14.133Z,42.90
2018-04-23T00:34:18.891Z,43.00
2018-04-23T00:35:23.522Z,42.90
2018-04-23T00:36:28.456Z,43.00
2018-04-23T00:37:33.246Z,42.90
2018-04-23T00:38:37.967Z,43.00
2018-04-23T00:39:42.754Z,43.00
2018-04-23T00:40:47.491Z,43.00
2018-04-23T00:41:52.466Z,43.00
2018-04-23T00:42:57.459Z,43.00
2018-04-23T00:44:02.290Z,43.60
2018-04-23T00:45:07.090Z,43.10
2018-04-23T00:46:12.108Z,43.10
2018-04-23T00:47:17.018Z,43.00
2018-04-23T00:48:21.821Z,43.10
2018-04-23T00:49:26.728Z,43.20
2018-04-23T00:50:31.568Z,43.10
2018-04-23T00:51:36.488Z,43.10
2018-04-23T00:52:41.376Z,43.10
2018-04-23T00:53:46.031Z,43.10
2018-04-23T00:54:50.754Z,43.10
2018-04-23T00:55:55.546Z,43.20
2018-04-23T00:57:00.215Z,43.20
2018-04-23T00:58:04.990Z,43.20
2018-04-23T00:59:09.611Z,43.20
2018-04-23T01:00:14.264Z,43.30
2018-04-23T01:01:19.202Z,43.30
2018-04-23T01:02:23.932Z,43.20
2018-04-23T01:03:28.556Z,43.30
2018-04-23T01:04:33.222Z,43.30
2018-04-23T01:05:37.907Z,43.20
2018-04-23T01:06:42.774Z,43.30
2018-04-23T01:07:47.724Z,43.30
2018-04-23T01:08:52.501Z,43.30
2018-04-23T01:09:57.279Z,43.40
2018-04-23T01:11:02.099Z,43.40
2018-04-23T01:12:07.078Z,43.40
2018-04-23T01:13:11.780Z,43.30
2018-04-23T01:14:16.453Z,43.40
2018-04-23T01:15:21.444Z,43.30
2018-04-23T01:16:26.314Z,43.50
2018-04-23T01:17:31.201Z,43.40
2018-04-23T01:18:35.921Z,43.50
2018-04-23T01:19:40.749Z,43.50
2018-04-23T01:20:45.501Z,43.50
2018-04-23T01:21:50.410Z,43.50
2018-04-23T01:22:55.044Z,43.50
2018-04-23T01:23:59.800Z,43.60
2018-04-23T01:25:04.427Z,43.60
2018-04-23T01:26:09.290Z,43.60
2018-04-23T01:27:14.144Z,43.50
2018-04-23T01:28:18.976Z,43.60
2018-04-23T01:29:23.797Z,43.60
2018-04-23T01:30:28.750Z,43.60
2018-04-23T01:31:33.606Z,43.60
2018-04-23T01:32:38.477Z,43.60
2018-04-23T01:33:43.398Z,43.60
2018-04-23T01:34:48.341Z,43.70
2018-04-23T01:35:53.355Z,43.60
2018-04-23T01:36:58.174Z,43.70
2018-04-23T01:38:03.069Z,43.70
2018-04-23T01:39:07.910Z,43.70
2018-04-23T01:40:12.731Z,43.70
2018-04-23T01:41:17.441Z,43.70
2018-04-23T01:42:22.219Z,43.70
2018-04-23T01:43:27.030Z,43.70
2018-04-23T01:44:31.737Z,43.70
2018-04-23T01:45:36.751Z,43.80
2018-04-23T01:46:41.646Z,43.80
2018-04-23T01:47:46.283Z,43.80
2018-04-23T01:48:51.128Z,43.80
2018-04-23T01:49:56.015Z,43.80
2018-04-23T01:51:01.050Z,43.80
2018-04-23T01:52:05.914Z,43.80
2018-04-23T01:53:11.362Z,43.80
2018-04-23T01:54:16.230Z,43.80
2018-04-23T01:55:21.130Z,43.90
2018-04-23T01:56:26.080Z,43.90
2018-04-23T01:58:30.698Z,43.90
2018-04-23T01:59:35.471Z,43.90
2018-04-23T02:00:40.304Z,43.80
2018-04-23T02:01:45.154Z,43.90
2018-04-23T02:02:50.074Z,43.90
2018-04-23T02:03:54.819Z,43.90
2018-04-23T02:04:59.502Z,43.90
2018-04-23T02:06:04.341Z,44.00
2018-04-23T02:07:09.002Z,44.00
2018-04-23T02:08:13.815Z,44.00
2018-04-23T02:09:18.778Z,44.00
2018-04-23T02:10:23.509Z,44.00
2018-04-23T02:11:28.356Z,44.10
2018-04-23T02:12:33.278Z,44.00
2018-04-23T02:13:38.008Z,44.00
2018-04-23T02:14:42.822Z,44.00
2018-04-23T02:15:48.080Z,44.00
2018-04-23T02:16:52.751Z,44.00
2018-04-23T02:17:57.428Z,44.00
2018-04-23T02:19:02.170Z,44.10
2018-04-23T02:20:07.111Z,44.10
2018-04-23T02:21:12.023Z,44.10
2018-04-23T02:22:16.870Z,44.10
2018-04-23T02:23:21.526Z,44.10
2018-04-23T02:24:26.427Z,44.10
2018-04-23T02:25:31.321Z,44.10
2018-04-23T02:26:36.322Z,44.10
2018-04-23T02:27:40.949Z,44.10
2018-04-23T02:28:45.843Z,44.20
2018-04-23T02:29:50.823Z,44.20
2018-04-23T02:30:55.465Z,44.20
2018-04-23T02:32:00.284Z,44.20
2018-04-23T02:33:04.900Z,44.20
2018-04-23T02:34:09.560Z,44.20
2018-04-23T02:35:14.284Z,44.90
2018-04-23T02:36:18.906Z,44.20
2018-04-23T02:37:23.758Z,44.30
2018-04-23T02:38:28.771Z,44.30
2018-04-23T02:39:33.583Z,44.30
2018-04-23T02:40:38.418Z,44.30
2018-04-23T02:41:43.096Z,44.30
2018-04-23T02:42:47.905Z,44.30
2018-04-23T02:43:52.676Z,44.30
2018-04-23T02:44:57.504Z,44.30
2018-04-23T02:46:02.490Z,44.30
2018-04-23T02:47:07.266Z,44.30
2018-04-23T02:48:11.867Z,44.30
2018-04-23T02:49:16.673Z,44.40
2018-04-23T02:50:21.307Z,44.40
2018-04-23T02:51:26.200Z,44.40
2018-04-23T02:52:31.049Z,44.40
2018-04-23T02:53:36.001Z,44.40
2018-04-23T02:54:40.873Z,44.40
2018-04-23T02:55:45.776Z,44.40
2018-04-23T02:56:50.666Z,44.40
2018-04-23T02:57:55.348Z,44.40
2018-04-23T02:59:00.100Z,44.40
2018-04-23T03:00:05.021Z,44.40
2018-04-23T03:01:09.593Z,44.40
2018-04-23T03:02:14.396Z,44.40
2018-04-23T03:03:19.103Z,44.40
2018-04-23T03:04:23.887Z,44.50
2018-04-23T03:05:28.664Z,44.50
2018-04-23T03:06:33.206Z,44.50
2018-04-23T03:07:37.794Z,44.50
2018-04-23T03:08:42.782Z,44.50
2018-04-23T03:09:47.728Z,44.50
2018-04-23T03:10:52.529Z,44.50
2018-04-23T03:11:57.146Z,44.60
2018-04-23T03:13:01.995Z,44.50
2018-04-23T03:14:06.696Z,44.50
2018-04-23T03:15:11.551Z,44.60
2018-04-23T03:16:16.322Z,44.60
2018-04-23T03:17:21.072Z,44.60
2018-04-23T03:18:25.849Z,44.60
2018-04-23T03:19:30.830Z,44.60
2018-04-23T03:20:35.511Z,44.60
2018-04-23T03:21:40.212Z,44.60
2018-04-23T03:22:44.840Z,44.60
2018-04-23T03:23:49.744Z,44.60
2018-04-23T03:24:54.581Z,44.60
2018-04-23T03:25:59.198Z,44.60
2018-04-23T03:27:03.956Z,44.70
2018-04-23T03:28:08.732Z,44.70
2018-04-23T03:29:13.483Z,45.30
2018-04-23T03:30:18.505Z,44.70
2018-04-23T03:31:23.410Z,44.70
2018-04-23T03:32:28.161Z,44.70
2018-04-23T03:33:32.759Z,44.70
2018-04-23T03:34:37.579Z,44.70
2018-04-23T03:35:42.191Z,44.70
2018-04-23T03:36:46.805Z,44.70
2018-04-23T03:37:51.626Z,44.70
2018-04-23T03:38:56.631Z,44.80
2018-04-23T03:40:01.615Z,44.80
2018-04-23T03:41:06.582Z,44.80
2018-04-23T03:42:11.307Z,44.80
2018-04-23T03:43:16.118Z,44.80
2018-04-23T03:44:21.652Z,44.80
2018-04-23T03:45:26.831Z,44.80
2018-04-23T03:46:31.853Z,44.80
2018-04-23T03:47:36.505Z,44.80
2018-04-23T03:48:41.303Z,44.80
2018-04-23T03:49:46.158Z,44.80
2018-04-23T03:50:50.851Z,44.80
2018-04-23T03:51:55.702Z,44.90
2018-04-23T03:53:00.759Z,44.90
2018-04-23T03:54:05.773Z,44.90
2018-04-23T03:55:10.649Z,44.90
2018-04-23T03:56:15.538Z,44.90
2018-04-23T03:57:20.834Z,44.90
2018-04-23T03:58:25.913Z,44.90
2018-04-23T03:59:31.001Z,44.90
2018-04-23T04:00:35.743Z,44.90
2018-04-23T04:01:40.566Z,44.90
2018-04-23T04:02:45.371Z,44.90
2018-04-23T04:03:50.054Z,45.00
2018-04-23T04:04:54.861Z,45.00
2018-04-23T04:05:59.657Z,45.00
2018-04-23T04:07:04.459Z,45.00
2018-04-23T04:08:09.224Z,45.60
2018-04-23T04:09:13.994Z,45.00
2018-04-23T04:10:18.614Z,45.00
2018-04-23T04:11:23.431Z,45.00
2018-04-23T04:12:28.303Z,45.00
2018-04-23T04:13:32.988Z,45.10
2018-04-23T04:14:37.625Z,45.10
2018-04-23T04:15:42.475Z,45.10
2018-04-23T04:16:47.256Z,45.10
2018-04-23T04:17:52.139Z,45.10
2018-04-23T04:18:57.038Z,45.10
2018-04-23T04:20:02.109Z,45.10
2018-04-23T04:21:07.016Z,45.10
2018-04-23T04:22:11.731Z,45.10
2018-04-23T04:23:16.453Z,45.10
2018-04-23T04:24:21.159Z,45.00
2018-04-23T04:25:25.944Z,45.00
2018-04-23T04:26:30.839Z,45.00
2018-04-23T04:27:35.785Z,45.00
2018-04-23T04:28:40.623Z,45.00
2018-04-23T04:29:45.858Z,45.00
2018-04-23T04:30:50.687Z,44.90
2018-04-23T04:31:55.677Z,45.00
2018-04-23T04:33:00.410Z,44.90
2018-04-23T04:34:05.186Z,45.00
2018-04-23T04:35:10.078Z,44.90
2018-04-23T04:36:14.821Z,44.90
2018-04-23T04:37:19.654Z,44.90
2018-04-23T04:38:24.342Z,44.90
2018-04-23T04:39:29.048Z,44.90
2018-04-23T04:40:34.318Z,45.00
2018-04-23T04:41:39.246Z,45.40
2018-04-23T04:42:44.151Z,45.80
2018-04-23T04:43:49.233Z,46.00
2018-04-23T04:44:54.260Z,46.50
2018-04-23T04:45:59.167Z,46.70
2018-04-23T04:47:04.137Z,46.70
2018-04-23T04:48:09.029Z,47.20
2018-04-23T04:49:14.200Z,47.80
2018-04-23T04:50:19.188Z,47.40
2018-04-23T04:51:24.262Z,47.40
2018-04-23T04:52:29.191Z,47.40
2018-04-23T04:53:34.774Z,47.70
2018-04-23T04:54:39.832Z,47.40
2018-04-23T04:55:44.855Z,47.50
2018-04-23T04:56:49.675Z,47.50
2018-04-23T04:57:54.486Z,47.60
2018-04-23T04:58:59.330Z,47.50
2018-04-23T05:00:04.346Z,47.70
2018-04-23T05:01:09.081Z,47.60
2018-04-23T05:02:13.886Z,48.00
2018-04-23T05:03:18.725Z,47.90
2018-04-23T05:04:23.369Z,47.80
2018-04-23T05:05:28.333Z,47.70
2018-04-23T05:06:32.905Z,47.60
2018-04-23T05:07:37.722Z,48.20
2018-04-23T05:08:42.499Z,47.30
2018-04-23T05:09:47.361Z,47.90
2018-04-23T05:10:52.230Z,47.30
2018-04-23T05:11:57.107Z,47.20
2018-04-23T05:13:02.085Z,47.10
2018-04-23T05:14:07.120Z,47.10
2018-04-23T05:15:11.900Z,47.00
2018-04-23T05:16:16.851Z,47.00
2018-04-23T05:17:21.599Z,47.00
2018-04-23T05:18:26.557Z,47.00
2018-04-23T05:19:31.557Z,46.90
2018-04-23T05:20:36.467Z,46.80
2018-04-23T05:21:41.089Z,47.00
2018-04-23T05:22:46.093Z,47.00
2018-04-23T05:23:50.839Z,46.90
2018-04-23T05:24:55.886Z,46.80
2018-04-23T05:26:00.952Z,46.90
2018-04-23T05:27:06.066Z,46.90
2018-04-23T05:28:11.059Z,47.00
2018-04-23T05:29:16.584Z,47.00
2018-04-23T05:30:21.507Z,46.90
2018-04-23T05:31:26.649Z,46.90
2018-04-23T05:32:31.715Z,46.90
2018-04-23T05:33:36.562Z,46.80
2018-04-23T05:34:41.516Z,46.80
2018-04-23T05:35:47.670Z,47.00
2018-04-23T05:36:52.867Z,46.80
2018-04-23T05:37:57.874Z,46.90
2018-04-23T05:39:02.703Z,46.90
2018-04-23T05:40:07.537Z,47.00
2018-04-23T05:41:12.354Z,46.90
2018-04-23T05:42:17.252Z,47.00
2018-04-23T05:43:22.257Z,46.90
2018-04-23T05:44:27.367Z,46.90
2018-04-23T05:45:32.577Z,46.90
2018-04-23T05:46:37.441Z,46.90
2018-04-23T05:47:42.275Z,47.10
2018-04-23T05:48:47.299Z,47.00
2018-04-23T05:49:52.149Z,46.90
2018-04-23T05:50:57.051Z,46.80
2018-04-23T05:52:02.081Z,46.90
2018-04-23T05:53:07.195Z,46.70
2018-04-23T05:54:12.042Z,46.80
2018-04-23T05:55:17.144Z,46.80
2018-04-23T05:56:22.024Z,47.00
2018-04-23T05:57:27.040Z,47.00
2018-04-23T05:58:32.060Z,47.00
2018-04-23T05:59:37.392Z,47.00
2018-04-23T06:00:42.250Z,47.10
2018-04-23T06:01:47.412Z,47.20
2018-04-23T06:02:52.174Z,47.20
2018-04-23T06:03:57.091Z,47.20
2018-04-23T06:05:01.944Z,47.30
2018-04-23T06:06:07.024Z,47.30
2018-04-23T06:07:11.816Z,47.40
2018-04-23T06:08:16.669Z,47.40
2018-04-23T06:09:21.659Z,47.30
2018-04-23T06:10:26.490Z,47.30
2018-04-23T06:11:31.495Z,47.40
2018-04-23T06:12:36.763Z,47.40
2018-04-23T06:13:41.761Z,47.40
2018-04-23T06:14:46.869Z,47.20
2018-04-23T06:15:51.742Z,48.00
2018-04-23T06:16:56.434Z,47.30
2018-04-23T06:18:01.161Z,47.30
2018-04-23T06:19:05.842Z,47.30
2018-04-23T06:20:10.649Z,47.30
2018-04-23T06:21:15.551Z,47.40
2018-04-23T06:22:20.770Z,47.40
2018-04-23T06:23:25.774Z,47.50
2018-04-23T06:24:30.609Z,47.40
2018-04-23T06:25:35.563Z,47.40
2018-04-23T06:26:40.438Z,47.30
2018-04-23T06:27:45.369Z,47.30
2018-04-23T06:28:50.594Z,47.30
2018-04-23T06:29:55.427Z,47.30
2018-04-23T06:31:00.116Z,47.40
2018-04-23T06:32:05.418Z,47.40
2018-04-23T06:33:10.075Z,47.30
2018-04-23T06:34:15.100Z,47.30
2018-04-23T06:35:20.154Z,47.40
2018-04-23T06:36:24.914Z,47.20
2018-04-23T06:37:29.969Z,47.20
2018-04-23T06:38:35.063Z,47.30
2018-04-23T06:39:40.500Z,47.20
2018-04-23T06:40:45.215Z,47.20
2018-04-23T06:41:50.283Z,47.20
2018-04-23T06:42:55.194Z,47.30
2018-04-23T06:44:00.053Z,47.20
2018-04-23T06:45:05.110Z,47.20
2018-04-23T06:46:10.184Z,47.20
2018-04-23T06:47:15.371Z,47.30
2018-04-23T06:48:20.322Z,47.30
2018-04-23T06:49:25.218Z,47.30
2018-04-23T06:50:29.965Z,47.20
2018-04-23T06:51:34.780Z,47.20
2018-04-23T06:52:39.694Z,47.20
2018-04-23T06:53:44.366Z,47.10
2018-04-23T06:54:49.177Z,47.10
2018-04-23T06:55:54.121Z,47.20
2018-04-23T06:56:59.054Z,47.30
2018-04-23T06:58:03.994Z,47.30
2018-04-23T06:59:09.074Z,47.20
2018-04-23T07:00:14.040Z,47.30
2018-04-23T07:01:19.028Z,47.20
2018-04-23T07:02:23.718Z,47.20
2018-04-23T07:03:28.320Z,47.20
2018-04-23T07:04:34.038Z,47.20
2018-04-23T07:05:38.800Z,47.20
2018-04-23T07:06:43.654Z,47.20
2018-04-23T07:07:48.488Z,47.20
2018-04-23T07:08:53.296Z,47.20
2018-04-23T07:09:58.103Z,47.10
2018-04-23T07:11:02.775Z,47.10
2018-04-23T07:12:07.925Z,47.00
2018-04-23T07:13:13.061Z,46.90
2018-04-23T07:14:18.184Z,46.90
2018-04-23T07:15:23.195Z,46.90
2018-04-23T07:16:28.499Z,46.90
2018-04-23T07:17:33.413Z,46.90
2018-04-23T07:18:38.258Z,46.90
2018-04-23T07:19:43.092Z,46.80
2018-04-23T07:20:49.189Z,47.00
2018-04-23T07:21:54.126Z,47.70
2018-04-23T07:22:58.777Z,47.00
2018-04-23T07:24:04.108Z,47.10
2018-04-23T07:25:08.883Z,47.10
2018-04-23T07:26:13.692Z,47.20
2018-04-23T07:27:18.558Z,47.10
2018-04-23T07:28:23.576Z,47.00
2018-04-23T07:29:28.562Z,47.10
2018-04-23T07:30:33.419Z,47.00
2018-04-23T07:31:38.324Z,46.90
2018-04-23T07:32:43.118Z,46.90
2018-04-23T07:33:47.812Z,47.00
2018-04-23T07:34:53.229Z,46.90
2018-04-23T07:35:58.112Z,46.90
2018-04-23T07:37:02.955Z,46.90
2018-04-23T07:38:08.048Z,46.90
2018-04-23T07:39:13.418Z,47.00
2018-04-23T07:40:18.403Z,47.00
2018-04-23T07:41:23.011Z,47.00
2018-04-23T07:42:31.049Z,47.00
2018-04-23T07:43:35.817Z,47.00
2018-04-23T07:44:40.908Z,47.00
2018-04-23T07:45:45.683Z,47.00
2018-04-23T07:46:50.444Z,47.00
2018-04-23T07:47:55.404Z,46.90
2018-04-23T07:49:00.259Z,47.00
2018-04-23T07:50:05.198Z,47.10
2018-04-23T07:51:10.205Z,47.20
2018-04-23T07:52:15.013Z,47.30
2018-04-23T07:53:20.021Z,47.40
2018-04-23T07:54:24.754Z,47.60
2018-04-23T07:55:29.733Z,47.50
2018-04-23T07:56:34.439Z,47.40
2018-04-23T07:57:39.267Z,47.50
2018-04-23T07:58:44.207Z,47.50
2018-04-23T07:59:49.002Z,47.60
2018-04-23T08:00:53.903Z,47.60
2018-04-23T08:01:59.070Z,47.60
2018-04-23T08:03:04.099Z,47.70
2018-04-23T08:04:08.785Z,47.70
2018-04-23T08:05:13.616Z,47.60
2018-04-23T08:06:19.184Z,47.60
2018-04-23T08:07:24.122Z,47.60
2018-04-23T08:08:28.959Z,47.60
2018-04-23T08:09:33.778Z,47.50
2018-04-23T08:10:38.751Z,47.50
2018-04-23T08:11:43.753Z,47.40
2018-04-23T08:12:48.718Z,47.40
2018-04-23T08:13:53.583Z,47.40
2018-04-23T08:14:58.296Z,47.50
2018-04-23T08:16:03.294Z,47.50
2018-04-23T08:17:07.963Z,47.50
2018-04-23T08:18:12.915Z,47.50
2018-04-23T08:19:17.575Z,47.40
2018-04-23T08:20:22.339Z,47.40
2018-04-23T08:21:27.167Z,47.50
2018-04-23T08:22:31.996Z,47.40
2018-04-23T08:23:36.880Z,47.40
2018-04-23T08:24:41.706Z,47.40
2018-04-23T08:25:46.691Z,47.40
2018-04-23T08:26:51.725Z,47.40
2018-04-23T08:27:56.413Z,47.30
2018-04-23T08:29:01.327Z,47.30
2018-04-23T08:30:06.383Z,47.30
2018-04-23T08:31:11.543Z,47.30
2018-04-23T08:32:16.491Z,47.20
2018-04-23T08:33:21.467Z,47.20
2018-04-23T08:34:26.516Z,47.20
2018-04-23T08:35:31.609Z,47.20
2018-04-23T08:36:36.387Z,47.20
2018-04-23T08:37:41.068Z,47.30
2018-04-23T08:38:45.846Z,47.20
2018-04-23T08:39:50.679Z,47.40
2018-04-23T08:40:55.531Z,47.40
2018-04-23T08:42:00.257Z,47.40
2018-04-23T08:43:05.337Z,47.40
2018-04-23T08:44:10.269Z,47.50
2018-04-23T08:45:15.137Z,47.50
2018-04-23T08:46:20.115Z,47.50
2018-04-23T08:47:25.051Z,47.40
2018-04-23T08:48:30.265Z,47.40
2018-04-23T08:49:35.178Z,47.50
2018-04-23T08:50:40.232Z,47.50
2018-04-23T08:51:45.197Z,47.50
2018-04-23T08:52:50.179Z,47.40
2018-04-23T08:53:55.169Z,47.50
2018-04-23T08:55:00.296Z,47.30
2018-04-23T08:56:05.386Z,47.30
2018-04-23T08:57:10.346Z,47.30
2018-04-23T08:58:15.229Z,47.30
2018-04-23T08:59:20.040Z,47.30
2018-04-23T09:00:25.240Z,47.30
2018-04-23T09:01:30.164Z,47.30
2018-04-23T09:02:35.102Z,47.30
2018-04-23T09:03:39.924Z,47.30
2018-04-23T09:04:44.844Z,47.30
2018-04-23T09:05:49.890Z,47.30
2018-04-23T09:06:55.014Z,47.20
2018-04-23T09:08:00.015Z,47.20
2018-04-23T09:09:04.979Z,47.30
2018-04-23T09:10:10.027Z,47.30
2018-04-23T09:11:15.165Z,47.40
2018-04-23T09:12:20.245Z,47.40
2018-04-23T09:13:25.095Z,47.40
2018-04-23T09:14:30.104Z,47.40
2018-04-23T09:15:35.023Z,47.40
2018-04-23T09:16:40.174Z,47.40
2018-04-23T09:17:45.261Z,47.40
2018-04-23T09:18:50.212Z,47.40
2018-04-23T09:19:55.084Z,47.30
2018-04-23T09:21:00.623Z,47.40
2018-04-23T09:22:05.766Z,47.50
2018-04-23T09:23:10.861Z,47.40
2018-04-23T09:24:15.881Z,47.40
2018-04-23T09:25:20.836Z,47.50
2018-04-23T09:26:25.835Z,47.50
2018-04-23T09:27:30.786Z,47.60
2018-04-23T09:28:35.761Z,47.60
2018-04-23T09:29:40.703Z,47.60
2018-04-23T09:30:45.673Z,47.70
2018-04-23T09:31:50.675Z,47.70
2018-04-23T09:32:55.442Z,47.70
2018-04-23T09:34:00.465Z,47.70
2018-04-23T09:35:05.603Z,47.60
2018-04-23T09:36:10.509Z,47.60
2018-04-23T09:37:15.487Z,47.70
2018-04-23T09:38:21.726Z,47.60
2018-04-23T09:39:26.820Z,47.70
2018-04-23T09:40:31.712Z,47.70
2018-04-23T09:41:36.684Z,47.70
2018-04-23T09:42:41.743Z,47.70
2018-04-23T09:43:46.698Z,47.60
2018-04-23T09:44:53.282Z,47.60
2018-04-23T09:45:59.939Z,47.60
2018-04-23T09:47:04.810Z,47.60
2018-04-23T09:48:09.695Z,47.70
2018-04-23T09:49:14.696Z,47.70
2018-04-23T09:50:19.649Z,47.70
2018-04-23T09:51:24.686Z,47.60
2018-04-23T09:52:29.767Z,47.60
2018-04-23T09:53:35.224Z,47.60
2018-04-23T09:54:40.130Z,47.80
2018-04-23T09:55:45.051Z,47.60
2018-04-23T09:56:50.074Z,47.60
2018-04-23T09:57:54.949Z,47.60
2018-04-23T09:58:59.980Z,47.50
2018-04-23T10:00:04.973Z,48.20
2018-04-23T10:01:09.768Z,47.50
2018-04-23T10:02:15.050Z,47.50
2018-04-23T10:03:19.999Z,47.50
2018-04-23T10:04:24.969Z,47.40
2018-04-23T10:05:29.931Z,47.40
2018-04-23T10:06:35.024Z,47.30
2018-04-23T10:07:39.837Z,47.20
2018-04-23T10:08:45.033Z,47.30
2018-04-23T10:09:49.920Z,47.30
2018-04-23T10:10:55.155Z,47.30
2018-04-23T10:12:00.178Z,47.30
2018-04-23T10:13:05.556Z,47.90
2018-04-23T10:14:11.108Z,47.30
2018-04-23T10:15:16.395Z,47.30
2018-04-23T10:16:21.365Z,47.30
2018-04-23T10:17:26.757Z,47.30
2018-04-23T10:18:32.406Z,47.20
2018-04-23T10:19:37.447Z,47.20
2018-04-23T10:20:42.460Z,47.20
2018-04-23T10:21:47.801Z,47.20
2018-04-23T10:22:52.758Z,47.20
2018-04-23T10:23:57.899Z,47.10
2018-04-23T10:25:02.796Z,47.10
2018-04-23T10:26:08.071Z,47.10
2018-04-23T10:27:13.207Z,47.10
2018-04-23T10:28:18.140Z,47.20
2018-04-23T10:29:22.970Z,47.10
2018-04-23T10:30:27.859Z,47.10
2018-04-23T10:31:32.775Z,47.10
2018-04-23T10:32:37.958Z,47.00
2018-04-23T10:33:42.868Z,47.00
2018-04-23T10:34:47.722Z,47.10
2018-04-23T10:35:52.651Z,47.00
2018-04-23T10:36:57.499Z,47.00
2018-04-23T10:38:02.165Z,47.00
2018-04-23T10:39:07.139Z,46.90
2018-04-23T10:40:12.276Z,46.80
2018-04-23T10:41:17.020Z,46.80
2018-04-23T10:42:21.988Z,46.70
2018-04-23T10:43:26.734Z,46.80
2018-04-23T10:44:31.474Z,46.70
2018-04-23T10:45:36.432Z,46.70
2018-04-23T10:46:41.426Z,46.70
2018-04-23T10:47:46.465Z,46.60
2018-04-23T10:48:51.258Z,46.60
2018-04-23T10:49:56.250Z,46.60
2018-04-23T10:51:01.184Z,46.50
2018-04-23T10:52:06.161Z,46.40
2018-04-23T10:53:10.866Z,46.40
2018-04-23T10:54:15.809Z,46.40
2018-04-23T10:55:20.726Z,46.40
2018-04-23T10:56:25.460Z,46.30
2018-04-23T10:57:30.153Z,46.30
2018-04-23T10:58:34.897Z,46.30
2018-04-23T10:59:39.567Z,46.20
2018-04-23T11:00:44.310Z,46.20
2018-04-23T11:01:49.238Z,46.20
2018-04-23T11:02:54.117Z,46.10
2018-04-23T11:03:59.106Z,46.10
2018-04-23T11:05:03.982Z,46.10
2018-04-23T11:06:08.981Z,46.00
2018-04-23T11:07:13.860Z,46.00
2018-04-23T11:08:18.782Z,46.00
2018-04-23T11:09:23.662Z,46.00
2018-04-23T11:10:28.539Z,45.90
2018-04-23T11:11:33.285Z,45.90
2018-04-23T11:12:38.156Z,45.90
2018-04-23T11:13:43.175Z,45.80
2018-04-23T11:14:48.075Z,45.80
2018-04-23T11:15:53.037Z,45.80
2018-04-23T11:16:58.017Z,45.80
2018-04-23T11:18:02.721Z,45.70
2018-04-23T11:19:07.678Z,45.70
2018-04-23T11:20:12.378Z,45.60
2018-04-23T11:21:17.132Z,45.60
2018-04-23T11:22:21.927Z,45.50
2018-04-23T11:23:26.706Z,45.50
2018-04-23T11:24:31.466Z,45.40
2018-04-23T11:25:36.468Z,45.30
2018-04-23T11:26:41.353Z,45.30
2018-04-23T11:27:46.193Z,45.20
2018-04-23T11:28:50.816Z,45.20
2018-04-23T11:29:55.567Z,45.20
2018-04-23T11:31:00.423Z,45.10
2018-04-23T11:32:05.111Z,45.10
2018-04-23T11:33:10.072Z,45.10
2018-04-23T11:34:14.789Z,45.00
2018-04-23T11:35:19.665Z,44.90
2018-04-23T11:36:24.553Z,44.80
2018-04-23T11:37:29.408Z,44.60
2018-04-23T11:38:34.355Z,44.50
2018-04-23T11:39:39.415Z,44.40
2018-04-23T11:40:44.302Z,44.40
2018-04-23T11:41:49.321Z,44.40
2018-04-23T11:42:54.409Z,44.20
2018-04-23T11:43:59.451Z,44.00
2018-04-23T11:45:04.633Z,44.00
2018-04-23T11:46:09.474Z,43.90
2018-04-23T11:47:14.484Z,43.80
2018-04-23T11:48:19.564Z,43.70
2018-04-23T11:49:24.731Z,43.80
2018-04-23T11:50:29.498Z,43.70
2018-04-23T11:51:34.227Z,43.60
2018-04-23T11:52:39.050Z,43.60
2018-04-23T11:53:44.174Z,43.60
2018-04-23T11:54:49.212Z,43.40
2018-04-23T11:55:54.121Z,43.50
2018-04-23T11:56:59.253Z,43.60
2018-04-23T11:58:04.407Z,43.60
2018-04-23T11:59:09.173Z,43.50
2018-04-23T12:00:14.196Z,43.50
2018-04-23T12:01:19.295Z,43.40
2018-04-23T12:02:24.933Z,43.40
2018-04-23T12:03:29.786Z,43.30
2018-04-23T12:04:34.804Z,43.30
2018-04-23T12:05:39.709Z,43.30
2018-04-23T12:06:44.566Z,43.20
2018-04-23T12:07:49.815Z,43.20
2018-04-23T12:08:54.765Z,43.10
2018-04-23T12:09:59.833Z,43.00
2018-04-23T12:11:04.957Z,43.00
2018-04-23T12:12:10.190Z,43.10
2018-04-23T12:13:15.306Z,43.10
2018-04-23T12:14:20.442Z,42.90
2018-04-23T12:15:25.503Z,42.90
2018-04-23T12:16:30.547Z,42.80
2018-04-23T12:17:35.720Z,42.60
2018-04-23T12:18:40.834Z,42.60
2018-04-23T12:19:46.147Z,42.50
2018-04-23T12:20:51.075Z,42.50
2018-04-23T12:21:55.916Z,42.50
2018-04-23T12:23:00.993Z,42.40
2018-04-23T12:24:05.744Z,42.30
2018-04-23T12:25:10.824Z,42.40
2018-04-23T12:26:15.605Z,42.30
2018-04-23T12:27:20.559Z,42.30
2018-04-23T12:28:25.422Z,42.30
2018-04-23T12:29:30.495Z,42.30
2018-04-23T12:30:35.364Z,42.30
2018-04-23T12:31:40.900Z,42.20
2018-04-23T12:32:46.040Z,42.20
2018-04-23T12:33:51.169Z,42.20
2018-04-23T12:34:56.149Z,42.20
2018-04-23T12:36:01.270Z,42.10
2018-04-23T12:37:06.294Z,42.10
2018-04-23T12:38:11.222Z,42.00
2018-04-23T12:39:16.260Z,42.00
2018-04-23T12:40:21.207Z,42.00
2018-04-23T12:41:26.061Z,42.00
2018-04-23T12:42:31.167Z,42.00
2018-04-23T12:43:35.818Z,42.00
2018-04-23T12:44:40.927Z,41.90
2018-04-23T12:45:45.862Z,41.90
2018-04-23T12:46:51.143Z,41.90
2018-04-23T12:47:56.218Z,41.80
2018-04-23T12:49:01.131Z,41.80
2018-04-23T12:50:06.202Z,41.80
2018-04-23T12:51:11.241Z,41.80
2018-04-23T12:52:16.340Z,41.90
2018-04-23T12:53:21.216Z,41.90
2018-04-23T12:54:26.652Z,41.90
2018-04-23T12:55:32.146Z,41.90
2018-04-23T12:56:37.154Z,41.80
2018-04-23T12:57:42.230Z,41.70
2018-04-23T12:58:47.223Z,41.60
2018-04-23T12:59:52.083Z,41.60
2018-04-23T13:00:57.174Z,41.60
2018-04-23T13:02:02.018Z,41.50
2018-04-23T13:03:07.054Z,41.60
2018-04-23T13:04:12.043Z,41.60
2018-04-23T13:05:16.896Z,41.60
2018-04-23T13:06:21.766Z,41.70
2018-04-23T13:07:26.595Z,41.80
2018-04-23T13:08:31.381Z,41.70
2018-04-23T13:09:36.368Z,41.60
2018-04-23T13:10:41.153Z,41.50
2018-04-23T13:11:46.060Z,41.50
2018-04-23T13:12:51.174Z,41.50
2018-04-23T13:13:56.335Z,41.50
2018-04-23T13:15:01.170Z,41.50
2018-04-23T13:16:06.043Z,41.40
2018-04-23T13:17:11.140Z,42.10
2018-04-23T13:18:16.315Z,41.30
2018-04-23T13:19:21.238Z,41.30
2018-04-23T13:20:26.219Z,41.30
2018-04-23T13:21:31.189Z,41.40
2018-04-23T13:22:36.197Z,41.40
2018-04-23T13:23:41.188Z,41.40
2018-04-23T13:24:46.324Z,41.30
2018-04-23T13:25:51.293Z,41.30
2018-04-23T13:26:56.324Z,41.30
2018-04-23T13:28:01.224Z,41.20
2018-04-23T13:29:06.107Z,41.30
2018-04-23T13:30:11.242Z,41.20
2018-04-23T13:31:16.329Z,41.10
2018-04-23T13:32:21.473Z,41.10
2018-04-23T13:33:26.354Z,41.10
2018-04-23T13:34:31.264Z,41.00
2018-04-23T13:35:36.273Z,41.00
2018-04-23T13:36:41.124Z,40.90
2018-04-23T13:37:46.050Z,40.90
2018-04-23T13:38:51.001Z,40.90
2018-04-23T13:39:55.924Z,40.80
2018-04-23T13:41:00.879Z,40.90
2018-04-23T13:42:05.653Z,40.80
2018-04-23T13:43:10.615Z,40.80
2018-04-23T13:44:15.555Z,40.80
2018-04-23T13:45:20.554Z,40.90
2018-04-23T13:46:25.491Z,40.80
2018-04-23T13:47:30.453Z,40.80
2018-04-23T13:48:35.341Z,40.80
2018-04-23T13:49:40.402Z,40.80
2018-04-23T13:50:45.718Z,40.70
2018-04-23T13:51:50.516Z,40.70
2018-04-23T13:52:55.225Z,40.70
2018-04-23T13:54:00.284Z,40.70
2018-04-23T13:55:05.484Z,40.60
2018-04-23T13:56:10.524Z,40.60
2018-04-23T13:57:15.657Z,40.60